Time;durP1;ratioP1;P1;durP2;ratioP2;P2;SDS_P1;SDS_P2;PMS_P1;PMS_P2;Temp;Humidity;BMP_temperature;BMP_pressure;BME280_temperature;BME280_humidity;BME280_pressure;Samples;Min_cycle;Max_cycle;Signal;HPM_P1;HPM_P2
2022/07/19 00:01:27;;;;;;;5.57;1.30;;;21.20;69.40;;;;;;5069698;28;20067;-80
2022/07/19 00:03:53;;;;;;;3.42;1.27;;;21.10;69.40;;;;;;5070133;28;20032;-80
2022/07/19 00:06:18;;;;;;;2.13;1.27;;;21.10;69.40;;;;;;5051233;28;20028;-81
2022/07/19 00:08:44;;;;;;;3.10;1.38;;;21.10;69.70;;;;;;5069902;28;20119;-79
2022/07/19 00:11:09;;;;;;;7.70;1.80;;;21.00;69.60;;;;;;5051861;28;20440;-80
2022/07/19 00:13:35;;;;;;;4.78;1.45;;;21.00;69.80;;;;;;5052135;28;20067;-79
2022/07/19 00:16:00;;;;;;;4.57;1.23;;;20.90;69.80;;;;;;5069605;28;20540;-79
2022/07/19 00:18:25;;;;;;;4.57;1.52;;;20.90;69.50;;;;;;5070011;28;20036;-80
2022/07/19 00:20:51;;;;;;;5.38;1.65;;;20.80;69.50;;;;;;5070245;28;20029;-78
2022/07/19 00:23:16;;;;;;;10.23;1.40;;;20.80;69.60;;;;;;5069649;28;20037;-78
2022/07/19 00:25:42;;;;;;;7.07;1.00;;;20.70;69.90;;;;;;5069242;28;20029;-79
2022/07/19 00:28:07;;;;;;;2.55;1.23;;;20.70;69.90;;;;;;5051996;28;20530;-79
2022/07/19 00:30:33;;;;;;;3.75;1.23;;;20.70;70.30;;;;;;5051906;28;20078;-79
2022/07/19 00:32:59;;;;;;;3.28;1.13;;;20.60;70.90;;;;;;5051076;28;20451;-78
2022/07/19 00:35:24;;;;;;;2.05;1.08;;;20.60;71.00;;;;;;5050774;28;20037;-78
2022/07/19 00:37:50;;;;;;;2.47;1.42;;;20.50;71.00;;;;;;5069547;28;20032;-81
2022/07/19 00:40:24;;;;;;;3.15;1.00;;;20.40;71.30;;;;;;5051721;28;20135;-76
2022/07/19 00:42:54;;;;;;;5.97;1.30;;;20.40;71.70;;;;;;5068897;28;20036;-79
2022/07/19 00:45:20;;;;;;;2.40;1.10;;;20.30;71.80;;;;;;5050867;28;20028;-79
2022/07/19 00:47:46;;;;;;;1.95;1.02;;;20.30;72.20;;;;;;5072061;28;20382;-80
2022/07/19 00:50:12;;;;;;;2.38;0.98;;;20.30;72.40;;;;;;5054522;28;20033;-82
2022/07/19 00:52:39;;;;;;;2.83;1.20;;;20.20;73.00;;;;;;5053646;28;20040;-78
2022/07/19 00:55:05;;;;;;;3.70;1.10;;;20.20;73.10;;;;;;5054324;28;20029;-78
2022/07/19 00:57:31;;;;;;;6.47;1.40;;;20.10;73.20;;;;;;5053187;28;20029;-80
2022/07/19 00:59:57;;;;;;;4.50;1.55;;;20.10;73.20;;;;;;5054161;28;20494;-80
2022/07/19 01:02:24;;;;;;;2.97;1.20;;;20.10;73.40;;;;;;5053979;28;20059;-76
2022/07/19 01:04:50;;;;;;;6.53;1.25;;;20.00;73.30;;;;;;5054224;28;20120;-77
2022/07/19 01:07:15;;;;;;;2.38;1.35;;;20.00;73.90;;;;;;5071719;28;20112;-77
2022/07/19 01:09:41;;;;;;;2.10;1.20;;;20.00;73.80;;;;;;5073264;28;20028;-79
2022/07/19 01:12:08;;;;;;;3.88;1.05;;;19.90;74.00;;;;;;5054426;28;20483;-81
2022/07/19 01:14:35;;;;;;;3.08;1.25;;;19.90;74.30;;;;;;5072234;28;20036;-79
2022/07/19 01:17:02;;;;;;;2.08;1.20;;;19.90;74.60;;;;;;5054871;28;20394;-79
2022/07/19 01:19:27;;;;;;;3.38;1.15;;;19.90;75.00;;;;;;5054188;28;20032;-79
2022/07/19 01:21:53;;;;;;;3.50;1.27;;;19.90;75.50;;;;;;5053179;28;20388;-79
2022/07/19 01:24:18;;;;;;;2.60;1.08;;;19.80;76.00;;;;;;5071622;28;20037;-78
2022/07/19 01:26:44;;;;;;;3.63;1.48;;;19.80;76.00;;;;;;5070800;28;20420;-80
2022/07/19 01:29:14;;;;;;;2.80;1.30;;;19.80;76.00;;;;;;5071763;28;20028;-80
2022/07/19 01:31:40;;;;;;;4.63;1.35;;;19.80;76.20;;;;;;5053163;28;20036;-81
2022/07/19 01:34:05;;;;;;;2.67;0.98;;;19.80;76.20;;;;;;5071756;28;20036;-79
2022/07/19 01:36:31;;;;;;;2.60;1.05;;;19.80;76.90;;;;;;5070937;28;20054;-79
2022/07/19 01:38:56;;;;;;;5.13;1.17;;;19.70;76.60;;;;;;5071914;28;20114;-79
2022/07/19 01:41:22;;;;;;;2.50;1.20;;;19.70;76.90;;;;;;5018241;28;996729;-79
2022/07/19 01:43:47;;;;;;;2.25;1.10;;;19.70;77.10;;;;;;5054879;28;20462;-81
2022/07/19 01:46:13;;;;;;;2.75;1.23;;;19.70;77.10;;;;;;5054184;28;20027;-80
2022/07/19 01:48:39;;;;;;;3.38;1.38;;;19.70;77.20;;;;;;5072584;28;20039;-80
2022/07/19 01:51:04;;;;;;;4.95;1.30;;;19.70;77.50;;;;;;5054291;28;20421;-81
2022/07/19 01:53:30;;;;;;;5.15;1.10;;;19.70;77.40;;;;;;5072567;28;20103;-79
2022/07/19 01:55:55;;;;;;;2.40;1.05;;;19.70;77.40;;;;;;5053458;28;20037;-83
2022/07/19 01:58:21;;;;;;;2.35;1.17;;;19.60;77.70;;;;;;5054171;28;20020;-80
2022/07/19 02:00:47;;;;;;;4.15;1.00;;;19.60;78.10;;;;;;5071996;28;20143;-80
2022/07/19 02:03:12;;;;;;;3.15;1.23;;;19.60;78.10;;;;;;5054227;28;20033;-78
2022/07/19 02:05:38;;;;;;;4.60;1.27;;;19.60;78.00;;;;;;5071572;28;20031;-79
2022/07/19 02:08:03;;;;;;;4.15;0.90;;;19.60;78.40;;;;;;5054535;28;20056;-83
2022/07/19 02:10:29;;;;;;;1.30;0.80;;;19.60;78.40;;;;;;5072534;28;20037;-79
2022/07/19 02:12:55;;;;;;;2.40;1.20;;;19.60;78.70;;;;;;5053878;28;20090;-79
2022/07/19 02:15:21;;;;;;;2.40;1.02;;;19.60;79.20;;;;;;5055125;28;20032;-77
2022/07/19 02:17:46;;;;;;;2.13;1.08;;;19.50;79.60;;;;;;5073215;28;20028;-81
2022/07/19 02:20:12;;;;;;;2.90;1.10;;;19.50;79.80;;;;;;5074213;28;20068;-78
2022/07/19 02:22:38;;;;;;;3.78;1.05;;;19.50;80.20;;;;;;5058780;28;20033;-80
2022/07/19 02:25:04;;;;;;;4.63;1.17;;;19.40;80.40;;;;;;5058128;28;20533;-78
2022/07/19 02:27:29;;;;;;;3.08;1.23;;;19.40;80.50;;;;;;5074966;28;20033;-81
2022/07/19 02:29:55;;;;;;;2.92;1.30;;;19.40;80.90;;;;;;5055267;28;20025;-81
2022/07/19 02:32:21;;;;;;;1.85;1.13;;;19.40;81.00;;;;;;5053397;28;20072;-80
2022/07/19 02:34:46;;;;;;;6.45;1.50;;;19.40;81.40;;;;;;5053760;28;20025;-79
2022/07/19 02:37:11;;;;;;;6.43;1.50;;;19.30;81.50;;;;;;5071157;28;20433;-81
2022/07/19 02:39:37;;;;;;;2.25;1.15;;;19.30;81.90;;;;;;5071530;28;20045;-82
2022/07/19 02:42:03;;;;;;;6.90;1.25;;;19.20;81.90;;;;;;5053226;28;20702;-80
2022/07/19 02:44:28;;;;;;;4.53;1.40;;;19.20;82.20;;;;;;5053696;28;20035;-79
2022/07/19 02:46:54;;;;;;;2.90;1.48;;;19.20;82.60;;;;;;5070937;28;20029;-79
2022/07/19 02:49:20;;;;;;;3.92;1.10;;;19.20;82.90;;;;;;5053521;28;20024;-79
2022/07/19 02:51:46;;;;;;;3.10;1.45;;;19.10;83.10;;;;;;5053126;28;20060;-78
2022/07/19 02:54:11;;;;;;;3.65;1.40;;;19.10;83.40;;;;;;5053222;28;20774;-78
2022/07/19 02:56:37;;;;;;;4.03;1.48;;;19.10;83.60;;;;;;5052354;28;20024;-78
2022/07/19 02:59:03;;;;;;;3.90;1.45;;;19.10;83.80;;;;;;5053286;28;20040;-83
2022/07/19 03:01:29;;;;;;;3.35;1.35;;;19.10;84.10;;;;;;5070716;28;20064;-84
2022/07/19 03:03:55;;;;;;;4.32;1.35;;;19.00;84.50;;;;;;5070845;28;20067;-78
2022/07/19 03:06:21;;;;;;;2.22;1.60;;;19.00;85.20;;;;;;5052362;28;20094;-83
2022/07/19 03:08:47;;;;;;;4.22;1.50;;;19.00;85.40;;;;;;5051864;28;20514;-79
2022/07/19 03:11:13;;;;;;;4.30;1.60;;;19.00;85.60;;;;;;5052231;28;20036;-79
2022/07/19 03:13:39;;;;;;;4.13;1.55;;;19.00;85.80;;;;;;5052670;28;20058;-82
2022/07/19 03:16:05;;;;;;;2.47;1.33;;;19.00;85.90;;;;;;5052191;28;20085;-78
2022/07/19 03:18:31;;;;;;;5.60;1.25;;;19.00;86.10;;;;;;5052557;28;20025;-78
2022/07/19 03:20:58;;;;;;;3.50;1.88;;;19.00;86.40;;;;;;5052338;28;20034;-78
2022/07/19 03:23:27;;;;;;;2.90;1.20;;;19.00;86.30;;;;;;5070616;28;20024;-81
2022/07/19 03:25:53;;;;;;;4.97;2.00;;;19.00;86.50;;;;;;5065520;28;20101;-81
2022/07/19 03:28:18;;;;;;;3.33;1.50;;;19.00;86.90;;;;;;5032721;28;20128;-78
2022/07/19 03:30:44;;;;;;;6.07;1.70;;;19.00;87.00;;;;;;5050074;28;20032;-78
2022/07/19 03:33:10;;;;;;;6.57;1.30;;;19.00;86.90;;;;;;5050450;28;20041;-78
2022/07/19 03:35:36;;;;;;;1.85;1.20;;;19.00;87.40;;;;;;5049733;28;20064;-80
2022/07/19 03:38:01;;;;;;;3.33;1.10;;;19.00;87.40;;;;;;5032374;28;20052;-79
2022/07/19 03:40:27;;;;;;;5.10;1.15;;;19.00;87.30;;;;;;5069390;28;20066;-78
2022/07/19 03:42:52;;;;;;;3.75;1.63;;;19.00;87.60;;;;;;5052052;28;20085;-79
2022/07/19 03:45:18;;;;;;;7.10;1.27;;;19.00;87.60;;;;;;5051996;28;20104;-76
2022/07/19 03:47:43;;;;;;;3.00;1.30;;;19.00;87.40;;;;;;5069800;28;20466;-78
2022/07/19 03:50:09;;;;;;;8.25;1.50;;;19.00;87.10;;;;;;5052178;28;20432;-77
2022/07/19 03:52:34;;;;;;;3.67;1.35;;;19.00;86.70;;;;;;5069739;28;20032;-84
2022/07/19 03:55:00;;;;;;;3.53;1.00;;;19.00;87.20;;;;;;5070445;28;20032;-78
2022/07/19 03:57:26;;;;;;;2.50;1.30;;;19.00;87.10;;;;;;5051603;28;20490;-78
2022/07/19 03:59:51;;;;;;;2.03;1.05;;;19.10;87.20;;;;;;5070229;28;20036;-79
2022/07/19 04:02:16;;;;;;;5.13;1.40;;;19.10;86.90;;;;;;5051544;28;20442;-78
2022/07/19 04:04:43;;;;;;;5.32;1.90;;;19.10;86.60;;;;;;5051938;28;20029;-80
2022/07/19 04:07:08;;;;;;;6.97;1.33;;;19.20;86.70;;;;;;5051606;28;20119;-79
2022/07/19 04:09:34;;;;;;;2.90;1.25;;;19.20;86.40;;;;;;5051261;28;20536;-79
2022/07/19 04:11:59;;;;;;;3.13;1.38;;;19.20;85.80;;;;;;5069679;28;20041;-79
2022/07/19 04:14:25;;;;;;;2.97;1.55;;;19.30;85.80;;;;;;5070024;28;20533;-80
2022/07/19 04:16:50;;;;;;;4.07;1.20;;;19.30;85.50;;;;;;5051391;28;20021;-80
2022/07/19 04:19:15;;;;;;;1.83;1.25;;;19.40;85.70;;;;;;5069695;28;20111;-79
2022/07/19 04:21:41;;;;;;;2.35;1.50;;;19.40;85.50;;;;;;5068682;28;20148;-78
2022/07/19 04:24:06;;;;;;;2.13;1.17;;;19.50;85.20;;;;;;5052267;28;20025;-79
2022/07/19 04:26:32;;;;;;;1.90;1.33;;;19.50;84.90;;;;;;5050977;28;20482;-82
2022/07/19 04:28:57;;;;;;;4.35;1.15;;;19.50;85.10;;;;;;5051962;28;20028;-82
2022/07/19 04:31:23;;;;;;;5.45;2.10;;;19.60;85.20;;;;;;5051614;28;20139;-78
2022/07/19 04:33:48;;;;;;;5.13;1.67;;;19.60;85.10;;;;;;5069805;28;20036;-82
2022/07/19 04:36:14;;;;;;;3.67;1.48;;;19.60;84.60;;;;;;5051340;28;20433;-79
2022/07/19 04:38:39;;;;;;;2.45;1.38;;;19.60;84.70;;;;;;5051324;28;20040;-78
2022/07/19 04:41:05;;;;;;;4.03;1.50;;;19.70;84.50;;;;;;5051579;28;20028;-78
2022/07/19 04:43:30;;;;;;;2.25;1.10;;;19.70;84.40;;;;;;5069779;28;20090;-81
2022/07/19 04:45:59;;;;;;;5.00;1.52;;;19.80;84.50;;;;;;5069457;28;20553;-78
2022/07/19 04:48:25;;;;;;;2.60;1.10;;;19.80;84.20;;;;;;5051481;28;20025;-78
2022/07/19 04:50:51;;;;;;;3.78;1.38;;;19.80;83.90;;;;;;5069423;28;20089;-78
2022/07/19 04:53:16;;;;;;;4.25;1.40;;;19.90;83.90;;;;;;5051520;28;20316;-80
2022/07/19 04:55:41;;;;;;;5.40;1.70;;;19.90;83.70;;;;;;5050986;28;20035;-84
2022/07/19 04:58:07;;;;;;;3.47;1.45;;;20.00;83.50;;;;;;5051837;28;20371;-78
2022/07/19 05:00:32;;;;;;;6.43;1.60;;;20.00;83.40;;;;;;5069835;28;20025;-80
2022/07/19 05:02:58;;;;;;;4.75;1.48;;;20.10;83.60;;;;;;5051041;28;20047;-78
2022/07/19 05:05:23;;;;;;;2.80;1.27;;;20.10;83.30;;;;;;5051770;28;20029;-79
2022/07/19 05:07:49;;;;;;;2.13;1.35;;;20.20;83.10;;;;;;5069514;28;20024;-80
2022/07/19 05:10:15;;;;;;;3.42;0.95;;;20.30;82.50;;;;;;5051953;28;20051;-78
2022/07/19 05:12:42;;;;;;;2.45;1.20;;;20.30;82.40;;;;;;5052312;28;20032;-78
2022/07/19 05:15:08;;;;;;;6.50;1.08;;;20.40;82.20;;;;;;5069489;28;20047;-80
2022/07/19 05:17:34;;;;;;;2.40;1.30;;;20.50;82.10;;;;;;5050833;28;20028;-78
2022/07/19 05:20:00;;;;;;;1.88;1.23;;;20.60;81.60;;;;;;5069509;28;20072;-78
2022/07/19 05:22:25;;;;;;;2.10;1.10;;;20.60;81.30;;;;;;5069204;28;20074;-82
2022/07/19 05:24:55;;;;;;;3.83;1.15;;;20.70;81.00;;;;;;5051314;28;20514;-81
2022/07/19 05:27:21;;;;;;;6.38;1.17;;;20.80;81.00;;;;;;5050950;28;20078;-83
2022/07/19 05:29:47;;;;;;;1.33;1.00;;;20.90;80.90;;;;;;5069807;28;20466;-79
2022/07/19 05:32:12;;;;;;;7.35;1.65;;;21.00;79.80;;;;;;5071436;28;20039;-78
2022/07/19 05:34:38;;;;;;;2.55;1.50;;;21.00;79.50;;;;;;5055957;28;20665;-84
2022/07/19 05:37:04;;;;;;;3.38;1.00;;;21.10;79.30;;;;;;5077140;28;20028;-77
2022/07/19 05:39:29;;;;;;;3.55;1.20;;;21.20;78.80;;;;;;5076873;28;20063;-79
2022/07/19 05:41:55;;;;;;;1.83;1.20;;;21.30;78.50;;;;;;5073848;28;20119;-82
2022/07/19 05:44:21;;;;;;;6.60;1.42;;;21.40;78.10;;;;;;5054922;28;20437;-78
2022/07/19 05:46:47;;;;;;;3.60;1.10;;;21.50;77.40;;;;;;5072234;28;20113;-84
2022/07/19 05:49:12;;;;;;;11.38;1.60;;;21.60;77.00;;;;;;5054631;28;20438;-79
2022/07/19 05:51:38;;;;;;;2.03;0.98;;;21.70;76.20;;;;;;5054078;28;20636;-83
2022/07/19 05:54:05;;;;;;;3.13;1.40;;;21.80;75.70;;;;;;5054367;28;20078;-79
2022/07/19 05:56:31;;;;;;;4.95;1.15;;;21.90;75.60;;;;;;5071583;28;20063;-81
2022/07/19 05:58:56;;;;;;;4.55;1.13;;;22.00;75.90;;;;;;5072615;28;20028;-80
2022/07/19 06:01:23;;;;;;;2.65;1.25;;;22.10;74.90;;;;;;5087110;28;20029;-79
2022/07/19 06:03:53;;;;;;;4.97;1.25;;;22.20;74.20;;;;;;5072372;28;20485;-80
2022/07/19 06:06:20;;;;;;;2.65;1.00;;;22.30;73.70;;;;;;5053711;28;20127;-84
2022/07/19 06:08:46;;;;;;;3.22;1.02;;;22.40;73.20;;;;;;5071966;28;20064;-80
2022/07/19 06:11:13;;;;;;;4.95;1.25;;;22.50;73.30;;;;;;5071906;28;20457;-81
2022/07/19 06:13:38;;;;;;;3.08;1.20;;;22.60;72.50;;;;;;5054258;28;20148;-80
2022/07/19 06:16:05;;;;;;;3.83;1.40;;;22.70;72.10;;;;;;5053441;28;20107;-79
2022/07/19 06:18:34;;;;;;;1.65;1.13;;;22.80;71.80;;;;;;5071832;28;20027;-80
2022/07/19 06:21:04;;;;;;;2.97;1.10;;;22.90;71.30;;;;;;5071808;28;20029;-80
2022/07/19 06:23:29;;;;;;;9.85;1.60;;;23.00;71.40;;;;;;5071589;28;20059;-80
2022/07/19 06:25:55;;;;;;;4.13;1.27;;;23.10;71.00;;;;;;5071296;28;20063;-82
2022/07/19 06:28:21;;;;;;;2.25;1.08;;;23.20;71.40;;;;;;5053888;28;20040;-79
2022/07/19 06:30:46;;;;;;;2.20;1.23;;;23.30;70.10;;;;;;5071344;28;20032;-81
2022/07/19 06:33:12;;;;;;;5.20;1.50;;;23.40;69.80;;;;;;5053684;28;20051;-79
2022/07/19 06:35:39;;;;;;;5.90;1.50;;;23.50;69.40;;;;;;5052763;28;20032;-80
2022/07/19 06:38:05;;;;;;;2.88;1.00;;;23.60;69.20;;;;;;5071563;28;20032;-85
2022/07/19 06:40:30;;;;;;;3.80;1.02;;;23.80;68.90;;;;;;5071351;28;20043;-80
2022/07/19 06:42:56;;;;;;;3.60;1.27;;;23.90;68.40;;;;;;5070979;28;20041;-81
2022/07/19 06:45:21;;;;;;;2.45;1.25;;;24.00;68.20;;;;;;5053004;28;20059;-83
2022/07/19 06:47:47;;;;;;;4.45;1.77;;;24.10;67.60;;;;;;5053253;28;20034;-79
2022/07/19 06:50:12;;;;;;;3.15;1.70;;;24.20;67.40;;;;;;5071705;28;20027;-80
2022/07/19 06:52:38;;;;;;;5.40;1.65;;;24.40;67.50;;;;;;5070706;28;20048;-84
2022/07/19 06:55:04;;;;;;;2.28;1.10;;;24.50;66.30;;;;;;5053494;28;20028;-79
2022/07/19 06:57:29;;;;;;;2.35;1.27;;;24.60;65.00;;;;;;5070810;28;20089;-78
2022/07/19 06:59:54;;;;;;;5.95;1.13;;;24.80;65.40;;;;;;5053462;28;20083;-79
2022/07/19 07:02:20;;;;;;;6.80;1.67;;;24.90;65.40;;;;;;5052723;28;20444;-79
2022/07/19 07:04:46;;;;;;;5.55;1.25;;;25.10;65.00;;;;;;5071112;28;20032;-79
2022/07/19 07:07:11;;;;;;;7.78;1.60;;;25.20;63.90;;;;;;5070306;28;20033;-83
2022/07/19 07:09:36;;;;;;;5.75;1.40;;;25.40;62.50;;;;;;5052593;28;20033;-77
2022/07/19 07:12:02;;;;;;;3.53;1.58;;;25.50;61.90;;;;;;5070625;28;20124;-80
2022/07/19 07:14:28;;;;;;;2.50;1.30;;;25.60;61.20;;;;;;5070663;28;20032;-79
2022/07/19 07:16:53;;;;;;;2.63;1.00;;;25.80;61.60;;;;;;5052159;28;20020;-79
2022/07/19 07:19:19;;;;;;;3.75;1.35;;;26.00;61.10;;;;;;5052674;28;20086;-78
2022/07/19 07:21:46;;;;;;;2.95;0.93;;;26.10;62.20;;;;;;5070367;28;20052;-79
2022/07/19 07:24:12;;;;;;;4.82;1.42;;;26.20;61.20;;;;;;5052610;28;20033;-79
2022/07/19 07:26:37;;;;;;;6.07;1.40;;;26.40;61.20;;;;;;5051815;28;20443;-83
2022/07/19 07:29:03;;;;;;;4.45;1.20;;;26.60;62.80;;;;;;5070813;28;20032;-80
2022/07/19 07:31:28;;;;;;;7.53;1.60;;;26.80;61.00;;;;;;5069932;28;20083;-80
2022/07/19 07:33:54;;;;;;;2.55;1.38;;;26.90;59.60;;;;;;5070600;28;20032;-78
2022/07/19 07:36:19;;;;;;;3.45;1.27;;;27.00;60.50;;;;;;5051783;28;20028;-78
2022/07/19 07:38:44;;;;;;;4.25;1.13;;;27.20;59.70;;;;;;5051948;28;20419;-82
2022/07/19 07:41:10;;;;;;;4.70;1.45;;;27.30;59.40;;;;;;5052125;28;20036;-78
2022/07/19 07:43:36;;;;;;;4.15;1.58;;;27.50;59.70;;;;;;5052196;28;20599;-83
2022/07/19 07:46:02;;;;;;;3.90;1.30;;;27.60;60.40;;;;;;5069851;28;20501;-80
2022/07/19 07:48:28;;;;;;;5.63;1.50;;;27.80;58.80;;;;;;5070128;28;20032;-79
2022/07/19 07:50:53;;;;;;;5.05;1.67;;;27.90;58.50;;;;;;5070059;28;20032;-82
2022/07/19 07:53:19;;;;;;;3.50;1.45;;;28.10;58.20;;;;;;5069833;28;20052;-79
2022/07/19 07:55:44;;;;;;;6.30;1.20;;;28.30;58.20;;;;;;5069246;28;20033;-81
2022/07/19 07:58:11;;;;;;;3.80;1.55;;;28.40;57.40;;;;;;5070213;28;20032;-82
2022/07/19 08:00:38;;;;;;;5.43;1.13;;;28.60;58.80;;;;;;5051614;28;20032;-83
2022/07/19 08:03:04;;;;;;;1.98;1.23;;;28.90;57.40;;;;;;5051765;28;20056;-80
2022/07/19 08:05:31;;;;;;;6.22;2.63;;;29.00;56.80;;;;;;5050979;28;20588;-80
2022/07/19 08:07:57;;;;;;;3.45;1.30;;;29.20;57.60;;;;;;5051826;28;20131;-79
2022/07/19 08:10:26;;;;;;;23.73;3.75;;;29.30;55.70;;;;;;5055157;28;20087;-79
2022/07/19 08:12:52;;;;;;;2.15;1.05;;;29.60;58.60;;;;;;5052056;28;20120;-81
2022/07/19 08:15:18;;;;;;;4.93;1.27;;;29.70;55.70;;;;;;5061469;28;20035;-79
2022/07/19 08:17:43;;;;;;;12.45;1.30;;;29.90;54.30;;;;;;5069568;28;20115;-81
2022/07/19 08:20:09;;;;;;;2.95;1.20;;;30.10;54.00;;;;;;5062110;28;20062;-79
2022/07/19 08:22:35;;;;;;;18.70;2.03;;;30.20;53.50;;;;;;5069233;28;20068;-79
2022/07/19 08:25:00;;;;;;;2.33;1.20;;;30.40;55.30;;;;;;5065250;28;20024;-80
2022/07/19 08:27:26;;;;;;;5.57;1.77;;;30.50;54.20;;;;;;5068800;28;20436;-80
2022/07/19 08:29:51;;;;;;;3.53;1.48;;;30.60;52.10;;;;;;5054359;28;20410;-82
2022/07/19 08:32:17;;;;;;;5.78;1.50;;;30.60;52.50;;;;;;5084626;28;20060;-82
2022/07/19 08:34:42;;;;;;;7.97;1.40;;;30.80;54.10;;;;;;5069526;28;20037;-81
2022/07/19 08:37:08;;;;;;;2.92;1.48;;;31.00;51.00;;;;;;5069305;28;20086;-79
2022/07/19 08:39:33;;;;;;;7.95;1.63;;;31.20;51.70;;;;;;5069061;28;20037;-79
2022/07/19 08:41:59;;;;;;;3.67;1.13;;;31.40;50.60;;;;;;5069128;28;20454;-79
2022/07/19 08:44:25;;;;;;;3.08;0.98;;;31.50;51.10;;;;;;5069691;28;20033;-81
2022/07/19 08:46:52;;;;;;;7.53;1.30;;;31.60;50.00;;;;;;5069285;28;20108;-79
2022/07/19 08:49:19;;;;;;;3.45;1.23;;;31.80;49.80;;;;;;5069958;28;20048;-81
2022/07/19 08:51:47;;;;;;;4.68;1.40;;;32.00;51.30;;;;;;5070786;28;20041;-81
2022/07/19 08:54:13;;;;;;;4.30;1.55;;;32.10;50.10;;;;;;5055821;28;20531;-78
2022/07/19 08:59:23;;;;;;;2.83;1.23;;;32.40;49.50;;;;;;5069974;28;20037;-78
2022/07/19 09:01:49;;;;;;;2.92;1.10;;;32.60;48.70;;;;;;5069448;28;20043;-79
2022/07/19 09:04:17;;;;;;;5.25;1.02;;;32.70;50.10;;;;;;5051606;28;20025;-79
2022/07/19 09:06:48;;;;;;;4.22;1.05;;;32.80;48.40;;;;;;5070071;28;20451;-80
2022/07/19 09:09:19;;;;;;;2.63;0.83;;;32.90;50.20;;;;;;5073583;28;20036;-79
2022/07/19 09:11:51;;;;;;;2.15;1.02;;;33.10;49.40;;;;;;5072911;28;20068;-80
2022/07/19 09:14:25;;;;;;;3.00;1.25;;;33.30;48.00;;;;;;5073288;28;20065;-79
2022/07/19 09:17:09;;;;;;;3.70;1.60;;;33.40;46.60;;;;;;5072645;28;20108;-80
2022/07/19 09:19:38;;;;;;;6.88;1.40;;;33.50;45.80;;;;;;5073120;28;20151;-80
2022/07/19 09:22:16;;;;;;;4.38;1.20;;;33.60;46.80;;;;;;5072873;28;20041;-80
2022/07/19 09:24:49;;;;;;;2.38;1.30;;;33.80;46.30;;;;;;5072876;28;20036;-80
2022/07/19 09:27:23;;;;;;;4.80;1.23;;;34.00;47.80;;;;;;5054601;28;20033;-77
2022/07/19 09:29:53;;;;;;;2.08;1.13;;;34.10;46.30;;;;;;5072925;28;20074;-79
2022/07/19 09:32:20;;;;;;;4.30;1.40;;;34.10;44.80;;;;;;5054240;28;20464;-79
2022/07/19 09:34:58;;;;;;;3.60;1.70;;;34.30;45.40;;;;;;5072845;28;20036;-82
2022/07/19 09:37:28;;;;;;;1.65;0.82;;;34.40;44.50;;;;;;5071941;28;20490;-79
2022/07/19 09:39:56;;;;;;;2.70;1.13;;;34.50;44.10;;;;;;5072560;28;20747;-80
2022/07/19 09:42:24;;;;;;;4.20;1.20;;;34.60;44.40;;;;;;5072181;28;20048;-80
2022/07/19 09:45:00;;;;;;;10.85;1.30;;;34.60;45.00;;;;;;5072824;28;20021;-79
2022/07/19 09:47:37;;;;;;;10.73;1.52;;;34.70;44.20;;;;;;5053671;28;20390;-79
2022/07/19 09:50:08;;;;;;;5.97;1.30;;;34.80;47.30;;;;;;5072867;28;20111;-81
2022/07/19 09:52:35;;;;;;;3.53;1.25;;;34.90;45.00;;;;;;5071919;28;20044;-79
2022/07/19 09:55:04;;;;;;;2.13;1.00;;;35.10;46.60;;;;;;5054543;28;20036;-80
2022/07/19 09:57:34;;;;;;;4.18;1.38;;;35.40;43.70;;;;;;5071499;28;20040;-80
2022/07/19 10:00:04;;;;;;;5.47;1.25;;;35.50;44.80;;;;;;5054501;28;20040;-78
2022/07/19 10:02:33;;;;;;;2.00;0.90;;;35.70;44.60;;;;;;5071748;28;20470;-79
2022/07/19 10:04:58;;;;;;;3.10;1.48;;;35.80;43.50;;;;;;5071840;28;20086;-78
2022/07/19 10:07:25;;;;;;;3.85;1.40;;;35.90;42.90;;;;;;5071389;28;20475;-82
2022/07/19 10:09:51;;;;;;;4.18;1.25;;;35.80;43.20;;;;;;5054298;28;20542;-80
2022/07/19 10:12:16;;;;;;;3.55;1.55;;;35.90;43.70;;;;;;5071758;28;20111;-80
2022/07/19 10:14:42;;;;;;;4.50;1.20;;;35.90;42.50;;;;;;5072265;28;20085;-79
2022/07/19 10:17:28;;;;;;;2.28;1.20;;;35.90;43.60;;;;;;5071537;28;20026;-81
2022/07/19 10:19:55;;;;;;;3.10;1.00;;;36.10;43.80;;;;;;5071784;28;20033;-80
2022/07/19 10:22:25;;;;;;;3.30;1.05;;;36.20;41.80;;;;;;5051548;28;20033;-79
2022/07/19 10:24:58;;;;;;;3.33;1.20;;;36.40;41.50;;;;;;5052052;28;20052;-81
2022/07/19 10:27:23;;;;;;;3.97;1.38;;;36.50;41.00;;;;;;5051011;28;20040;-79
2022/07/19 10:29:52;;;;;;;4.85;1.25;;;36.60;41.20;;;;;;5052260;28;20029;-79
2022/07/19 10:32:26;;;;;;;4.25;1.10;;;36.70;40.20;;;;;;5050977;28;20037;-80
2022/07/19 10:35:15;;;;;;;5.38;1.35;;;36.80;41.10;;;;;;5060411;28;20697;-80
2022/07/19 10:37:42;;;;;;;6.60;1.73;;;36.80;40.80;;;;;;5071184;28;20032;-82
2022/07/19 10:40:08;;;;;;;5.18;1.23;;;36.80;40.70;;;;;;5071955;28;20060;-78
2022/07/19 10:42:33;;;;;;;5.65;1.13;;;36.90;40.40;;;;;;5071207;28;20553;-80
2022/07/19 10:45:01;;;;;;;2.22;0.90;;;36.90;39.50;;;;;;5071594;28;20032;-82
2022/07/19 10:47:39;;;;;;;3.80;1.00;;;37.00;38.70;;;;;;5070823;28;20036;-79
2022/07/19 10:50:07;;;;;;;2.08;0.85;;;37.00;41.70;;;;;;5071303;28;20102;-81
2022/07/19 10:52:37;;;;;;;6.72;1.20;;;37.10;38.90;;;;;;5070767;28;20098;-79
2022/07/19 10:55:20;;;;;;;1.97;0.97;;;37.20;42.50;;;;;;5071290;28;20040;-79
2022/07/19 10:57:51;;;;;;;2.88;1.25;;;37.40;41.30;;;;;;5053089;28;20021;-79
2022/07/19 11:00:21;;;;;;;5.60;1.15;;;37.50;39.90;;;;;;5071230;28;20032;-79
2022/07/19 11:02:48;;;;;;;5.75;1.30;;;37.50;41.50;;;;;;5052648;28;20492;-78
2022/07/19 11:05:25;;;;;;;2.83;1.17;;;37.50;39.10;;;;;;5052621;28;20763;-79
2022/07/19 11:07:52;;;;;;;2.13;1.05;;;37.60;41.40;;;;;;5071130;28;20028;-79
2022/07/19 11:10:26;;;;;;;1.38;0.88;;;37.50;40.30;;;;;;5070746;28;20031;-79
2022/07/19 11:12:53;;;;;;;1.90;1.05;;;37.50;39.30;;;;;;5070792;28;20040;-82
2022/07/19 11:15:19;;;;;;;6.75;1.30;;;37.50;41.00;;;;;;5070900;28;20020;-79
2022/07/19 11:17:51;;;;;;;2.58;0.90;;;37.60;40.20;;;;;;5070559;28;20032;-81
2022/07/19 11:20:19;;;;;;;4.15;0.88;;;37.70;39.20;;;;;;5070828;28;20503;-79
2022/07/19 11:22:46;;;;;;;4.70;1.10;;;37.90;39.20;;;;;;5051988;28;20043;-80
2022/07/19 11:25:14;;;;;;;2.10;1.00;;;38.00;39.70;;;;;;5070351;28;20024;-79
2022/07/19 11:27:41;;;;;;;3.30;0.90;;;38.00;39.10;;;;;;5052313;28;20067;-84
2022/07/19 11:30:07;;;;;;;3.10;1.17;;;38.10;41.00;;;;;;5052321;28;20036;-82
2022/07/19 11:32:33;;;;;;;3.55;1.10;;;38.20;40.10;;;;;;5069877;28;20036;-81
2022/07/19 11:35:01;;;;;;;2.03;1.13;;;38.40;39.80;;;;;;5070497;28;20032;-80
2022/07/19 11:37:32;;;;;;;4.38;1.33;;;38.50;40.20;;;;;;5051614;28;20066;-79
2022/07/19 11:39:58;;;;;;;1.42;1.17;;;38.50;38.60;;;;;;5070700;28;20024;-79
2022/07/19 11:42:51;;;;;;;2.40;1.08;;;38.50;37.90;;;;;;5070097;28;20055;-79
2022/07/19 11:45:24;;;;;;;2.13;1.23;;;38.60;38.20;;;;;;5066551;28;20049;-82
2022/07/19 11:47:53;;;;;;;10.38;1.40;;;38.70;41.20;;;;;;5070715;28;20032;-78
2022/07/19 11:50:24;;;;;;;3.08;1.05;;;38.60;38.00;;;;;;5070181;28;20029;-79
2022/07/19 11:52:50;;;;;;;1.83;1.03;;;38.60;37.70;;;;;;5070118;28;21485;-78
2022/07/19 11:55:17;;;;;;;4.13;1.38;;;38.50;37.30;;;;;;5052100;28;20027;-82
2022/07/19 11:57:43;;;;;;;7.40;1.30;;;38.60;37.80;;;;;;5070606;28;20058;-79
2022/07/19 12:00:11;;;;;;;3.83;1.17;;;38.70;39.10;;;;;;5072625;28;20081;-82
2022/07/19 12:03:13;;;;;;;3.10;1.08;;;38.70;38.80;;;;;;5071577;28;20177;-85
2022/07/19 12:05:38;;;;;;;;;;;38.90;37.90;;;;;;5028363;28;20111;-81
2022/07/19 12:08:07;;;;;;;3.38;0.90;;;38.90;37.30;;;;;;5072307;28;19936;-85
2022/07/19 12:10:46;;;;;;;4.47;1.23;;;38.80;37.00;;;;;;5070203;28;20115;-80
2022/07/19 12:13:14;;;;;;;5.65;1.02;;;38.90;36.80;;;;;;5070831;28;20493;-83
2022/07/19 12:15:42;;;;;;;7.97;1.17;;;39.00;38.10;;;;;;5051931;28;20036;-83
2022/07/19 12:18:08;;;;;;;1.50;0.90;;;39.00;37.70;;;;;;5070226;28;20032;-82
2022/07/19 12:20:33;;;;;;;4.88;1.23;;;39.10;38.40;;;;;;5052165;28;20032;-80
2022/07/19 12:23:28;;;;;;;4.82;1.20;;;39.10;37.80;;;;;;5069338;28;20045;-80
2022/07/19 12:26:03;;;;;;;6.28;1.40;;;39.10;37.10;;;;;;5051771;28;20113;-81
2022/07/19 12:28:28;;;;;;;3.45;1.42;;;39.20;37.40;;;;;;5069835;28;20028;-83
2022/07/19 12:31:02;;;;;;;3.00;1.33;;;39.00;36.20;;;;;;5051575;28;20486;-82
2022/07/19 12:33:28;;;;;;;6.20;1.60;;;39.00;36.70;;;;;;5069942;28;20395;-81
2022/07/19 12:35:53;;;;;;;1.42;1.00;;;39.00;36.50;;;;;;5051167;28;20028;-80
2022/07/19 12:38:29;;;;;;;5.22;1.33;;;39.00;35.80;;;;;;5069237;28;20036;-79
2022/07/19 12:41:05;;;;;;;6.22;2.00;;;39.10;39.90;;;;;;5069475;28;20036;-79
2022/07/19 12:43:31;;;;;;;4.10;1.52;;;39.20;37.60;;;;;;5073774;28;20044;-81
2022/07/19 12:46:01;;;;;;;3.67;1.42;;;39.40;36.60;;;;;;5056311;28;20029;-80
2022/07/19 12:48:27;;;;;;;4.63;1.10;;;39.50;36.90;;;;;;5074186;28;20025;-82
2022/07/19 12:50:52;;;;;;;4.68;0.95;;;39.50;36.70;;;;;;5074415;28;20033;-80